This is the latest recevied weather packets stored in our database for station/object NQ9F. If no packets are shown the sender has not sent any weather packets the latest 10 day(s).
| Time | Temp. | Humidity | Pressure | Rain* | Wind** | Luminosity | Snow |
|---|---|---|---|---|---|---|---|
| 1777936292 | 26.67° C | 62% | 1005.7 hPa | 0 mm | - | 277 W/m² | - |
| 1777935989 | 26.67° C | 63% | 1005.7 hPa | 0 mm | - | 251 W/m² | - |
| 1777935688 | 26.67° C | 62% | 1005.9 hPa | 0 mm | - | 238 W/m² | - |
| 1777935385 | 26.67° C | 62% | 1005.8 hPa | 0 mm | - | 322 W/m² | - |
| 1777935081 | 26.67° C | 62% | 1005.8 hPa | 0 mm | - | 268 W/m² | - |
| 1777934778 | 26.67° C | 61% | 1005.7 hPa | 0 mm | - | 322 W/m² | - |
| 1777934475 | 26.67° C | 60% | 1005.6 hPa | 0 mm | - | 503 W/m² | - |
| 1777934172 | 26.67° C | 61% | 1006.2 hPa | 0 mm | - | 265 W/m² | - |
| 1777933868 | 27.22° C | 60% | 1006.2 hPa | 0 mm | - | 411 W/m² | - |
| 1777933565 | 27.22° C | 60% | 1005.8 hPa | 0 mm | - | 472 W/m² | - |
| 1777933262 | 27.22° C | 60% | 1006.1 hPa | 0 mm | - | 486 W/m² | - |
| 1777932959 | 27.22° C | 59% | 1006.2 hPa | 0 mm | - | 535 W/m² | - |
| 1777932656 | 27.22° C | 59% | 1006.1 hPa | 0 mm | - | 542 W/m² | - |
| 1777932352 | 27.22° C | 60% | 1006 hPa | 0 mm | - | 660 W/m² | - |
| 1777932049 | 27.22° C | 59% | 1006.2 hPa | 0 mm | - | 504 W/m² | - |
| 1777931746 | 27.78° C | 59% | 1006.3 hPa | 0 mm | - | 412 W/m² | - |
| 1777931444 | 27.78° C | 58% | 1006.2 hPa | 0 mm | - | 646 W/m² | - |
| 1777931139 | 27.78° C | 58% | 1006.2 hPa | 0 mm | - | 684 W/m² | - |
| 1777930836 | 27.22° C | 58% | 1006.2 hPa | 0 mm | - | 760 W/m² | - |
| 1777930532 | 27.22° C | 59% | 1006.4 hPa | 0 mm | - | 516 W/m² | - |
| 1777930230 | 27.22° C | 58% | 1006.4 hPa | 0 mm | - | 487 W/m² | - |
| 1777929925 | 27.78° C | 60% | 1006.6 hPa | 0 mm | - | 456 W/m² | - |
| 1777929623 | 27.78° C | 58% | 1006.6 hPa | 0 mm | - | 484 W/m² | - |
| 1777929320 | 27.22° C | 57% | 1006.7 hPa | 0 mm | - | 688 W/m² | - |
| 1777929017 | 27.78° C | 57% | 1006.9 hPa | 0 mm | - | 566 W/m² | - |
* Rain latest hour (hover to see other rain measurements)
** Current wind speed in m/s (hover to see current wind gust speed)